San Pasqual Valley (470) Station Data

Red Flag Warning: No
Fire Weather Zone: 250
SDGE Region: North East
Lat/Lon: 33.093/-116.955

Observations

Time Wind Speed/Gust Temp(F) RH Fuel Moist Fuel Temp(F) Dewpt(F) Tmax(F) Tmin(F) Accum Precip 10-min Precip SL Press(mb)
5/24 8:20am 22 2 G 8 63° 80% - - 57° 63.8° 55.5° - - -
5/24 8:10am 61 3 G 9 61° 89% - - 58° 62.9° 55.5° - - -
5/24 8:00am 109 3 G 5 59° 93% - - 57° 60.4° 55.5° - - -
5/24 7:50am 105 3 G 7 59° 93% - - 57° 60.4° 55.5° - - -
5/24 7:40am 68 0 G 2 59° 94% - - 57° 60.4° 55.5° - - -
5/24 7:30am 28 2 G 5 58° 94% - - 56° 60.4° 55.5° - - -
5/24 7:20am 340 2 G 4 58° 93% - - 56° 60.4° 55.5° - - -
5/24 7:10am 348 1 G 3 58° 93% - - 56° 60.4° 55.5° - - -
5/24 7:00am 291 2 G 4 58° 93% - - 56° 60.4° 55.5° - - -
5/24 6:50am 286 3 G 7 58° 94% - - 56° 60.4° 55.5° - - -
5/24 6:40am 296 1 G 5 58° 94% - - 56° 60.4° 55.5° - - -
5/24 6:30am 252 2 G 5 58° 94% - - 56° 60.4° 55.5° - - -
5/24 6:20am 240 4 G 7 57° 94% - - 55° 60.4° 55.5° - - -
5/24 6:10am 232 5 G 10 57° 93% - - 55° 60.4° 55.5° - - -
5/24 6:00am 223 4 G 9 57° 92% - - 54° 60.4° 55.5° - - -
5/24 5:50am 135 1 G 5 57° 93% - - 55° 60.4° 55.5° - - -
5/24 5:40am 57 4 G 8 56° 95% - - 55° 60.4° 55.5° - - -
5/24 5:30am 92 4 G 8 56° 95% - - 55° 60.4° 55.5° - - -
5/24 5:20am 79 4 G 11 56° 96% - - 55° 60.4° 55.6° - - -
5/24 5:10am 83 3 G 7 57° 96% - - 55° 60.4° 56° - - -
5/24 5:00am 71 4 G 6 57° 96% - - 56° 60.4° 56° - - -
5/24 4:50am 67 2 G 5 57° 96% - - 56° 60.4° 56° - - -
5/24 4:40am 38 1 G 3 57° 96% - - 56° 60.4° 56° - - -
5/24 4:30am 27 1 G 3 58° 96% - - 56° 60.4° 56° - - -
5/24 4:20am 56 0 G 1 58° 96% - - 56° 60.4° 56° - - -
5/24 4:10am 238 1 G 3 58° 95% - - 56° 60.4° 56° - - -
5/24 4:00am 282 1 G 2 58° 95% - - 56° 60.4° 56° - - -
5/24 3:50am 336 1 G 3 58° 95% - - 56° 60.4° 56° - - -
5/24 3:40am 336 1 G 2 58° 95% - - 56° 60.4° 56° - - -
5/24 3:30am 314 0 G 0 57° 95% - - 56° 60.4° 56° - - -
5/24 3:20am 352 0 G 1 57° 95% - - 56° 60.4° 56° - - -
5/24 3:10am 335 2 G 3 57° 95% - - 55° 60.4° 56° - - -
5/24 3:00am 313 2 G 3 57° 95% - - 56° 60.4° 56° - - -
5/24 2:50am 280 1 G 2 57° 95% - - 56° 60.4° 56° - - -
5/24 2:40am 244 0 G 1 57° 94% - - 56° 60.4° 56° - - -
5/24 2:30am 68 1 G 2 57° 94% - - 55° 60.4° 56° - - -
5/24 2:20am 68 1 G 2 57° 93% - - 55° 60.4° 56° - - -
5/24 2:10am 29 0 G 1 56° 92% - - 54° 60.4° 56° - - -
5/24 2:00am 242 1 G 3 57° 91% - - 54° 60.4° 56° - - -
5/24 1:50am 268 0 G 2 57° 90% - - 54° 60.4° 56° - - -
5/24 1:40am 258 1 G 2 57° 90% - - 54° 60.4° 56.5° - - -
5/24 1:30am 282 0 G 1 58° 90% - - 55° 60.4° 57.1° - - -
5/24 1:20am 295 0 G 1 58° 90% - - 55° 60.4° 57.3° - - -
5/24 1:10am 228 0 G 1 58° 90% - - 55° 60.4° 57.5° - - -
5/24 1:00am 80 1 G 2 59° 91% - - 57° 60.4° 57.5° - - -
5/24 12:50am 74 1 G 2 59° 90% - - 56° 60.4° 57.5° - - -
5/24 12:40am 129 1 G 2 59° 90% - - 56° 60.4° 57.5° - - -
5/24 12:30am 147 1 G 3 59° 88% - - 55° 60.4° 57.5° - - -
5/24 12:20am 97 1 G 2 59° 88% - - 56° 60.4° 58.7° - - -
5/24 12:10am 267 0 G 2 59° 87% - - 56° 60.4° 58.9° - - -
5/24 12:00am 314 0 G 2 60° 86% - - 56° 87.3° 53.9° - - -
5/23 11:50pm 62 1 G 3 61° 85% - - 56° 87.3° 53.9° - - -
5/23 11:40pm 151 1 G 2 62° 84% - - 57° 87.3° 53.9° - - -
5/23 11:30pm 110 0 G 2 62° 83% - - 57° 87.3° 53.9° - - -
5/23 11:20pm 196 1 G 2 62° 82% - - 57° 87.3° 53.9° - - -
5/23 11:10pm 71 1 G 2 63° 81% - - 57° 87.3° 53.9° - - -
5/23 11:00pm 105 1 G 2 62° 81% - - 57° 87.3° 53.9° - - -
5/23 10:50pm 81 0 G 2 63° 80% - - 56° 87.3° 53.9° - - -
5/23 10:40pm 174 0 G 0 63° 79% - - 56° 87.3° 53.9° - - -
5/23 10:30pm 277 0 G 2 64° 77% - - 56° 87.3° 53.9° - - -
5/23 10:20pm 60 1 G 2 64° 76% - - 57° 87.3° 53.9° - - -
5/23 10:10pm 12 1 G 2 65° 76% - - 57° 87.3° 53.9° - - -
5/23 10:00pm 286 0 G 2 65° 75% - - 57° 87.3° 53.9° - - -
5/23 9:50pm 58 1 G 2 65° 74% - - 57° 87.3° 53.9° - - -
5/23 9:40pm 64 1 G 2 66° 73% - - 57° 87.3° 53.9° - - -
5/23 9:30pm 61 1 G 2 66° 73% - - 57° 87.3° 53.9° - - -
5/23 9:20pm 314 1 G 3 67° 70% - - 57° 87.3° 53.9° - - -
5/23 9:10pm 305 1 G 2 67° 71% - - 57° 87.3° 53.9° - - -
5/23 9:00pm 278 1 G 2 68° 67% - - 57° 87.3° 53.9° - - -
5/23 8:50pm 245 0 G 1 69° 64% - - 57° 87.3° 53.9° - - -
5/23 8:40pm 280 2 G 3 70° 63% - - 57° 87.3° 53.9° - - -
5/23 8:30pm 323 1 G 3 71° 61% - - 57° 87.3° 53.9° - - -
5/23 8:20pm 67 1 G 3 71° 61% - - 57° 87.3° 53.9° - - -
5/23 8:10pm 90 2 G 3 71° 62% - - 57° 87.3° 53.9° - - -
5/23 8:00pm 125 1 G 2 71° 61% - - 57° 87.3° 53.9° - - -
5/23 7:50pm 204 2 G 4 73° 56% - - 57° 87.3° 53.9° - - -
5/23 7:40pm 257 2 G 4 74° 55% - - 57° 87.3° 53.9° - - -
5/23 7:30pm 258 3 G 5 75° 53% - - 57° 87.3° 53.9° - - -
5/23 7:20pm 256 3 G 6 76° 52% - - 57° 87.3° 53.9° - - -
5/23 7:10pm 248 4 G 9 77° 50% - - 57° 87.3° 53.9° - - -
5/23 7:00pm 243 5 G 9 78° 49% - - 57° 87.3° 53.9° - - -
5/23 6:50pm 251 5 G 8 79° 48% - - 57° 87.3° 53.9° - - -
5/23 6:40pm 252 6 G 11 79° 47% - - 57° 87.3° 53.9° - - -
5/23 6:30pm 249 6 G 11 80° 46% - - 57° 87.3° 53.9° - - -
5/23 6:20pm 251 7 G 11 80° 45% - - 57° 87.3° 53.9° - - -
5/23 6:10pm 254 7 G 12 81° 44% - - 57° 87.3° 53.9° - - -
5/23 6:00pm 271 9 G 13 82° 42% - - 57° 87.3° 53.9° - - -
5/23 5:50pm 263 8 G 14 83° 40% - - 57° 87.3° 53.9° - - -
5/23 5:40pm 260 7 G 13 86° 36% - - 56° 87.3° 53.9° - - -
5/23 5:30pm 251 5 G 8 86° 34% - - 55° 87.3° 53.9° - - -
5/23 5:20pm 238 4 G 8 86° 34% - - 55° 87.3° 53.9° - - -
5/23 5:10pm 232 4 G 7 86° 36% - - 55° 87.1° 53.9° - - -
5/23 5:00pm 253 5 G 8 86° 35% - - 55° 87.1° 53.9° - - -
5/23 4:50pm 243 4 G 9 85° 36% - - 56° 87.1° 53.9° - - -
5/23 4:40pm 238 4 G 7 85° 37% - - 56° 87.1° 53.9° - - -
5/23 4:30pm 215 5 G 8 84° 39% - - 56° 87.1° 53.9° - - -
5/23 4:20pm 218 5 G 10 84° 40% - - 57° 87.1° 53.9° - - -
5/23 4:10pm 219 5 G 8 84° 41% - - 58° 87.1° 53.9° - - -
5/23 4:00pm 237 4 G 9 83° 43% - - 58° 87.1° 53.9° - - -
5/23 3:50pm 218 4 G 9 82° 44% - - 58° 87.1° 53.9° - - -
5/23 3:40pm 233 5 G 10 82° 46% - - 59° 87.1° 53.9° - - -
5/23 3:30pm 237 5 G 8 81° 47% - - 59° 87.1° 53.9° - - -
5/23 3:20pm 235 6 G 11 81° 49% - - 60° 87.1° 53.9° - - -
5/23 3:10pm 237 6 G 11 80° 50% - - 60° 87.1° 53.9° - - -
5/23 3:00pm 232 5 G 10 80° 51% - - 60° 87.1° 53.9° - - -
5/23 2:50pm 238 6 G 10 79° 51% - - 60° 87.1° 53.9° - - -
5/23 2:40pm 238 5 G 12 79° 52% - - 59° 87.1° 53.9° - - -
5/23 2:30pm 242 7 G 14 79° 52% - - 60° 87.1° 53.9° - - -
5/23 2:20pm 251 7 G 13 78° 53% - - 60° 87.1° 53.9° - - -
5/23 2:10pm 240 7 G 14 78° 53% - - 60° 87.1° 53.9° - - -
5/23 2:00pm 238 8 G 15 78° 54% - - 60° 87.1° 53.9° - - -
5/23 1:50pm 238 7 G 15 78° 54% - - 60° 87.1° 53.9° - - -
5/23 1:40pm 244 9 G 16 78° 54% - - 60° 87.1° 53.9° - - -
5/23 1:30pm 244 9 G 18 78° 54% - - 60° 87.1° 53.9° - - -
5/23 1:20pm 237 10 G 16 77° 55% - - 60° 87.1° 53.9° - - -
5/23 1:10pm 239 11 G 17 77° 56% - - 60° 87.1° 53.9° - - -
5/23 1:00pm 240 11 G 18 77° 56% - - 60° 87.1° 53.9° - - -
5/23 12:50pm 235 12 G 19 77° 56% - - 60° 87.1° 53.9° - - -
5/23 12:40pm 245 11 G 17 78° 54% - - 60° 87.1° 53.9° - - -
5/23 12:30pm 245 10 G 15 78° 53% - - 60° 87.1° 53.9° - - -
5/23 12:20pm 248 10 G 16 80° 51% - - 60° 87.1° 53.9° - - -
5/23 12:10pm 255 11 G 17 80° 50% - - 60° 87.1° 53.9° - - -
5/23 12:00pm 256 11 G 17 81° 49% - - 60° 87.1° 53.9° - - -
5/23 11:50am 241 11 G 18 83° 45% - - 60° 87.1° 53.9° - - -
5/23 11:40am 250 9 G 17 85° 41% - - 59° 87.1° 53.9° - - -
5/23 11:30am 275 7 G 12 86° 32% - - 52° 86.9° 53.9° - - -
5/23 11:20am 272 8 G 12 85° 35% - - 55° 86.4° 53.9° - - -
5/23 11:10am 249 6 G 11 86° 34% - - 54° 86.4° 53.9° - - -
5/23 11:00am 221 5 G 9 85° 35% - - 54° 85.8° 53.9° - - -
5/23 10:50am 213 4 G 7 82° 38% - - 54° 83.6° 53.9° - - -
5/23 10:40am 224 3 G 6 81° 42% - - 56° 82° 53.9° - - -
5/23 10:30am 247 3 G 5 79° 47% - - 57° 80.4° 53.9° - - -
5/23 10:20am 232 3 G 6 78° 48% - - 57° 79° 53.9° - - -
5/23 10:10am 289 2 G 4 77° 50% - - 57° 78.7° 53.9° - - -
5/23 10:00am 225 1 G 2 75° 52% - - 56° 77.5° 53.9° - - -
5/23 9:50am 85 1 G 3 73° 55% - - 56° 75° 53.9° - - -
5/23 9:40am 147 2 G 4 70° 60% - - 56° 72° 53.9° - - -
5/23 9:30am 183 2 G 3 69° 64% - - 56° 70.1° 53.9° - - -
5/23 9:20am 220 1 G 4 67° 67% - - 56° 68.3° 53.9° - - -
5/23 9:10am 192 2 G 4 66° 72% - - 56° 66.9° 53.9° - - -
5/23 9:00am 333 0 G 2 62° 84% - - 57° 64.2° 53.9° - - -
5/23 8:50am 14 1 G 3 60° 93% - - 58° 61° 53.9° - - -
5/23 8:40am 349 1 G 3 58° 95% - - 57° 60.1° 53.9° - - -
5/23 8:30am 345 1 G 2 58° 96% - - 57° 60.1° 53.9° - - -
5/23 8:20am 72 1 G 3 57° 96% - - 56° 60.1° 53.9° - - -
5/23 8:10am 102 1 G 3 57° 96% - - 56° 60.1° 53.9° - - -
5/23 8:00am 71 1 G 3 57° 96% - - 56° 60.1° 53.9° - - -
5/23 7:50am 114 1 G 2 56° 96% - - 55° 60.1° 53.9° - - -
5/23 7:40am 132 2 G 3 56° 96% - - 55° 60.1° 53.9° - - -
5/23 7:30am 180 2 G 4 56° 96% - - 55° 60.1° 53.9° - - -
5/23 7:20am 197 0 G 1 56° 96% - - 55° 60.1° 53.9° - - -
5/23 7:10am 235 0 G 2 56° 96% - - 55° 60.1° 53.9° - - -
5/23 7:00am 297 0 G 1 56° 96% - - 54° 60.1° 53.9° - - -
5/23 6:50am 190 0 G 2 55° 96% - - 54° 60.1° 53.9° - - -
5/23 6:40am 42 0 G 0 55° 96% - - 54° 60.1° 53.9° - - -
5/23 6:30am 54 0 G 1 55° 96% - - 54° 60.1° 53.9° - - -
5/23 6:20am 50 1 G 2 55° 96% - - 54° 60.1° 53.9° - - -
5/23 6:10am 79 1 G 1 55° 96% - - 53° 60.1° 53.9° - - -
5/23 6:00am 69 1 G 2 54° 96% - - 53° 60.1° 53.9° - - -